sensor_id;sensor_type;location;lat;lon;timestamp;P1;durP1;ratioP1;P2;durP2;ratioP2
4957;SDS011;2494;51.872;9.688;2024-02-04T00:02:39;7.90;;;5.43;;
4957;SDS011;2494;51.872;9.688;2024-02-04T00:05:24;10.80;;;5.53;;
4957;SDS011;2494;51.872;9.688;2024-02-04T00:08:09;7.27;;;5.63;;
4957;SDS011;2494;51.872;9.688;2024-02-04T00:10:56;11.60;;;6.90;;
4957;SDS011;2494;51.872;9.688;2024-02-04T00:13:41;11.10;;;6.20;;
4957;SDS011;2494;51.872;9.688;2024-02-04T00:16:26;11.50;;;7.50;;
4957;SDS011;2494;51.872;9.688;2024-02-04T00:19:11;10.73;;;7.00;;
4957;SDS011;2494;51.872;9.688;2024-02-04T00:21:56;14.70;;;8.83;;
4957;SDS011;2494;51.872;9.688;2024-02-04T00:24:41;11.60;;;7.73;;
4957;SDS011;2494;51.872;9.688;2024-02-04T00:27:27;10.60;;;8.10;;
4957;SDS011;2494;51.872;9.688;2024-02-04T00:30:12;11.50;;;7.07;;
4957;SDS011;2494;51.872;9.688;2024-02-04T00:32:58;17.63;;;8.40;;
4957;SDS011;2494;51.872;9.688;2024-02-04T00:35:46;18.60;;;9.03;;
4957;SDS011;2494;51.872;9.688;2024-02-04T00:38:31;18.93;;;10.47;;
4957;SDS011;2494;51.872;9.688;2024-02-04T00:41:16;19.10;;;10.27;;
4957;SDS011;2494;51.872;9.688;2024-02-04T00:44:02;21.03;;;9.80;;
4957;SDS011;2494;51.872;9.688;2024-02-04T00:46:47;17.60;;;10.43;;
4957;SDS011;2494;51.872;9.688;2024-02-04T00:49:32;18.63;;;10.77;;
4957;SDS011;2494;51.872;9.688;2024-02-04T00:52:17;16.70;;;11.53;;
4957;SDS011;2494;51.872;9.688;2024-02-04T00:55:02;22.37;;;11.53;;
4957;SDS011;2494;51.872;9.688;2024-02-04T00:57:48;18.10;;;11.37;;
4957;SDS011;2494;51.872;9.688;2024-02-04T01:00:35;14.90;;;9.30;;
4957;SDS011;2494;51.872;9.688;2024-02-04T01:03:20;15.50;;;9.77;;
4957;SDS011;2494;51.872;9.688;2024-02-04T01:06:05;16.57;;;10.60;;
4957;SDS011;2494;51.872;9.688;2024-02-04T01:08:49;18.47;;;8.93;;
4957;SDS011;2494;51.872;9.688;2024-02-04T01:11:34;20.40;;;10.40;;
4957;SDS011;2494;51.872;9.688;2024-02-04T01:14:20;19.63;;;10.83;;
4957;SDS011;2494;51.872;9.688;2024-02-04T01:17:06;13.80;;;9.17;;
4957;SDS011;2494;51.872;9.688;2024-02-04T01:19:52;18.23;;;9.90;;
4957;SDS011;2494;51.872;9.688;2024-02-04T01:22:37;15.67;;;9.03;;
4957;SDS011;2494;51.872;9.688;2024-02-04T01:25:22;16.60;;;9.23;;
4957;SDS011;2494;51.872;9.688;2024-02-04T01:28:07;13.30;;;7.80;;
4957;SDS011;2494;51.872;9.688;2024-02-04T01:30:51;13.27;;;9.20;;
4957;SDS011;2494;51.872;9.688;2024-02-04T01:33:38;13.20;;;7.47;;
4957;SDS011;2494;51.872;9.688;2024-02-04T01:36:26;16.43;;;9.90;;
4957;SDS011;2494;51.872;9.688;2024-02-04T01:39:11;14.80;;;8.43;;
4957;SDS011;2494;51.872;9.688;2024-02-04T01:41:56;11.10;;;7.10;;
4957;SDS011;2494;51.872;9.688;2024-02-04T01:44:41;13.43;;;7.57;;
4957;SDS011;2494;51.872;9.688;2024-02-04T01:47:26;16.60;;;7.67;;
4957;SDS011;2494;51.872;9.688;2024-02-04T01:50:13;17.10;;;7.73;;
4957;SDS011;2494;51.872;9.688;2024-02-04T01:52:58;9.60;;;6.83;;
4957;SDS011;2494;51.872;9.688;2024-02-04T01:55:44;9.13;;;6.67;;
4957;SDS011;2494;51.872;9.688;2024-02-04T01:58:28;12.87;;;6.90;;
4957;SDS011;2494;51.872;9.688;2024-02-04T02:01:13;13.10;;;7.87;;
4957;SDS011;2494;51.872;9.688;2024-02-04T02:03:58;11.13;;;8.27;;
4957;SDS011;2494;51.872;9.688;2024-02-04T02:06:47;8.23;;;7.07;;
4957;SDS011;2494;51.872;9.688;2024-02-04T02:09:32;10.93;;;6.70;;
4957;SDS011;2494;51.872;9.688;2024-02-04T02:12:18;8.17;;;7.13;;
4957;SDS011;2494;51.872;9.688;2024-02-04T02:15:06;9.47;;;5.97;;
4957;SDS011;2494;51.872;9.688;2024-02-04T02:17:54;15.33;;;6.87;;
4957;SDS011;2494;51.872;9.688;2024-02-04T02:20:41;11.00;;;5.80;;
4957;SDS011;2494;51.872;9.688;2024-02-04T02:23:52;9.10;;;5.83;;
4957;SDS011;2494;51.872;9.688;2024-02-04T02:26:40;9.90;;;6.03;;
4957;SDS011;2494;51.872;9.688;2024-02-04T02:29:25;13.30;;;5.33;;
4957;SDS011;2494;51.872;9.688;2024-02-04T02:32:10;8.23;;;5.80;;
4957;SDS011;2494;51.872;9.688;2024-02-04T02:34:55;5.20;;;4.70;;
4957;SDS011;2494;51.872;9.688;2024-02-04T02:37:41;7.57;;;5.30;;
4957;SDS011;2494;51.872;9.688;2024-02-04T02:40:29;10.70;;;5.80;;
4957;SDS011;2494;51.872;9.688;2024-02-04T02:43:16;9.57;;;4.90;;
4957;SDS011;2494;51.872;9.688;2024-02-04T02:46:02;6.70;;;6.03;;
4957;SDS011;2494;51.872;9.688;2024-02-04T02:48:47;9.03;;;6.00;;
4957;SDS011;2494;51.872;9.688;2024-02-04T02:51:32;8.90;;;5.93;;
4957;SDS011;2494;51.872;9.688;2024-02-04T02:54:17;9.00;;;5.67;;
4957;SDS011;2494;51.872;9.688;2024-02-04T02:57:02;7.43;;;6.07;;
4957;SDS011;2494;51.872;9.688;2024-02-04T02:59:49;7.00;;;4.87;;
4957;SDS011;2494;51.872;9.688;2024-02-04T03:02:34;6.13;;;5.50;;
4957;SDS011;2494;51.872;9.688;2024-02-04T03:05:19;6.43;;;4.80;;
4957;SDS011;2494;51.872;9.688;2024-02-04T03:08:05;5.70;;;4.57;;
4957;SDS011;2494;51.872;9.688;2024-02-04T03:10:50;6.27;;;5.50;;
4957;SDS011;2494;51.872;9.688;2024-02-04T03:13:37;8.37;;;5.63;;
4957;SDS011;2494;51.872;9.688;2024-02-04T03:16:23;7.77;;;6.17;;
4957;SDS011;2494;51.872;9.688;2024-02-04T03:19:08;10.50;;;5.87;;
4957;SDS011;2494;51.872;9.688;2024-02-04T03:21:53;8.30;;;6.40;;
4957;SDS011;2494;51.872;9.688;2024-02-04T03:24:38;8.20;;;6.97;;
4957;SDS011;2494;51.872;9.688;2024-02-04T03:27:23;9.40;;;6.93;;
4957;SDS011;2494;51.872;9.688;2024-02-04T03:30:08;10.60;;;8.10;;
4957;SDS011;2494;51.872;9.688;2024-02-04T03:32:55;13.23;;;7.53;;
4957;SDS011;2494;51.872;9.688;2024-02-04T03:35:41;14.90;;;8.80;;
4957;SDS011;2494;51.872;9.688;2024-02-04T03:38:26;11.63;;;8.53;;
4957;SDS011;2494;51.872;9.688;2024-02-04T03:41:12;12.50;;;8.50;;
4957;SDS011;2494;51.872;9.688;2024-02-04T03:43:57;15.50;;;9.53;;
4957;SDS011;2494;51.872;9.688;2024-02-04T03:46:42;15.07;;;9.90;;
4957;SDS011;2494;51.872;9.688;2024-02-04T03:49:28;16.90;;;10.77;;
4957;SDS011;2494;51.872;9.688;2024-02-04T03:52:13;14.60;;;9.00;;
4957;SDS011;2494;51.872;9.688;2024-02-04T03:54:58;15.60;;;10.10;;
4957;SDS011;2494;51.872;9.688;2024-02-04T03:57:43;11.90;;;9.03;;
4957;SDS011;2494;51.872;9.688;2024-02-04T04:00:28;14.17;;;8.77;;
4957;SDS011;2494;51.872;9.688;2024-02-04T04:03:13;11.10;;;8.63;;
4957;SDS011;2494;51.872;9.688;2024-02-04T04:06:00;9.80;;;6.87;;
4957;SDS011;2494;51.872;9.688;2024-02-04T04:08:45;8.30;;;6.30;;
4957;SDS011;2494;51.872;9.688;2024-02-04T04:11:30;8.60;;;5.87;;
4957;SDS011;2494;51.872;9.688;2024-02-04T04:14:15;6.60;;;5.47;;
4957;SDS011;2494;51.872;9.688;2024-02-04T04:17:00;5.37;;;4.50;;
4957;SDS011;2494;51.872;9.688;2024-02-04T04:19:45;5.17;;;3.70;;
4957;SDS011;2494;51.872;9.688;2024-02-04T04:22:31;4.83;;;3.70;;
4957;SDS011;2494;51.872;9.688;2024-02-04T04:25:16;5.30;;;4.77;;
4957;SDS011;2494;51.872;9.688;2024-02-04T04:28:01;3.70;;;3.40;;
4957;SDS011;2494;51.872;9.688;2024-02-04T04:30:46;5.60;;;4.67;;
4957;SDS011;2494;51.872;9.688;2024-02-04T04:33:31;4.70;;;4.10;;
4957;SDS011;2494;51.872;9.688;2024-02-04T04:36:16;6.27;;;5.10;;
4957;SDS011;2494;51.872;9.688;2024-02-04T04:39:03;9.07;;;3.97;;
4957;SDS011;2494;51.872;9.688;2024-02-04T04:41:48;7.13;;;4.60;;
4957;SDS011;2494;51.872;9.688;2024-02-04T04:44:33;4.43;;;3.83;;
4957;SDS011;2494;51.872;9.688;2024-02-04T04:47:18;5.60;;;4.57;;
4957;SDS011;2494;51.872;9.688;2024-02-04T04:50:04;6.57;;;4.83;;
4957;SDS011;2494;51.872;9.688;2024-02-04T04:52:50;5.10;;;4.30;;
4957;SDS011;2494;51.872;9.688;2024-02-04T04:55:36;5.90;;;4.50;;
4957;SDS011;2494;51.872;9.688;2024-02-04T04:58:21;7.87;;;4.70;;
4957;SDS011;2494;51.872;9.688;2024-02-04T05:01:06;6.63;;;5.00;;
4957;SDS011;2494;51.872;9.688;2024-02-04T05:03:51;5.00;;;4.10;;
4957;SDS011;2494;51.872;9.688;2024-02-04T05:06:36;8.10;;;4.43;;
4957;SDS011;2494;51.872;9.688;2024-02-04T05:09:21;6.53;;;3.70;;
4957;SDS011;2494;51.872;9.688;2024-02-04T05:12:08;4.20;;;2.90;;
4957;SDS011;2494;51.872;9.688;2024-02-04T05:14:53;5.97;;;4.20;;
4957;SDS011;2494;51.872;9.688;2024-02-04T05:17:38;6.10;;;3.97;;
4957;SDS011;2494;51.872;9.688;2024-02-04T05:20:23;5.30;;;4.03;;
4957;SDS011;2494;51.872;9.688;2024-02-04T05:23:08;5.23;;;4.13;;
4957;SDS011;2494;51.872;9.688;2024-02-04T05:25:53;5.07;;;3.47;;
4957;SDS011;2494;51.872;9.688;2024-02-04T05:28:39;6.57;;;3.67;;
4957;SDS011;2494;51.872;9.688;2024-02-04T05:31:24;4.50;;;3.93;;
4957;SDS011;2494;51.872;9.688;2024-02-04T05:34:09;5.43;;;3.23;;
4957;SDS011;2494;51.872;9.688;2024-02-04T05:36:54;4.80;;;3.00;;
4957;SDS011;2494;51.872;9.688;2024-02-04T05:39:39;2.33;;;2.13;;
4957;SDS011;2494;51.872;9.688;2024-02-04T05:42:24;2.00;;;1.80;;
4957;SDS011;2494;51.872;9.688;2024-02-04T05:45:10;6.43;;;2.37;;
4957;SDS011;2494;51.872;9.688;2024-02-04T05:47:55;2.97;;;2.30;;
4957;SDS011;2494;51.872;9.688;2024-02-04T05:50:40;3.27;;;2.17;;
4957;SDS011;2494;51.872;9.688;2024-02-04T05:53:26;2.67;;;2.20;;
4957;SDS011;2494;51.872;9.688;2024-02-04T05:56:11;2.60;;;2.40;;
4957;SDS011;2494;51.872;9.688;2024-02-04T05:58:56;4.10;;;2.30;;
4957;SDS011;2494;51.872;9.688;2024-02-04T06:01:42;3.53;;;2.37;;
4957;SDS011;2494;51.872;9.688;2024-02-04T06:04:28;8.10;;;2.00;;
4957;SDS011;2494;51.872;9.688;2024-02-04T06:07:14;2.43;;;1.60;;
4957;SDS011;2494;51.872;9.688;2024-02-04T06:09:59;2.13;;;1.70;;
4957;SDS011;2494;51.872;9.688;2024-02-04T06:12:45;1.97;;;1.77;;
4957;SDS011;2494;51.872;9.688;2024-02-04T06:15:31;3.77;;;1.50;;
4957;SDS011;2494;51.872;9.688;2024-02-04T06:18:17;3.53;;;1.87;;
4957;SDS011;2494;51.872;9.688;2024-02-04T06:21:02;2.20;;;1.97;;
4957;SDS011;2494;51.872;9.688;2024-02-04T06:23:47;2.60;;;1.90;;
4957;SDS011;2494;51.872;9.688;2024-02-04T06:26:32;2.67;;;2.10;;
4957;SDS011;2494;51.872;9.688;2024-02-04T06:29:17;5.50;;;2.90;;
4957;SDS011;2494;51.872;9.688;2024-02-04T06:32:02;3.07;;;2.23;;
4957;SDS011;2494;51.872;9.688;2024-02-04T06:34:48;3.73;;;3.30;;
4957;SDS011;2494;51.872;9.688;2024-02-04T06:37:34;3.17;;;2.70;;
4957;SDS011;2494;51.872;9.688;2024-02-04T06:40:19;3.27;;;2.97;;
4957;SDS011;2494;51.872;9.688;2024-02-04T06:43:04;4.40;;;3.80;;
4957;SDS011;2494;51.872;9.688;2024-02-04T06:45:49;3.83;;;3.50;;
4957;SDS011;2494;51.872;9.688;2024-02-04T06:48:39;4.23;;;3.83;;
4957;SDS011;2494;51.872;9.688;2024-02-04T06:51:26;3.63;;;3.33;;
4957;SDS011;2494;51.872;9.688;2024-02-04T06:54:11;3.73;;;3.20;;
4957;SDS011;2494;51.872;9.688;2024-02-04T06:56:56;3.50;;;3.20;;
4957;SDS011;2494;51.872;9.688;2024-02-04T06:59:41;4.20;;;3.80;;
4957;SDS011;2494;51.872;9.688;2024-02-04T07:02:26;3.43;;;3.03;;
4957;SDS011;2494;51.872;9.688;2024-02-04T07:05:11;3.30;;;3.00;;
4957;SDS011;2494;51.872;9.688;2024-02-04T07:07:57;4.13;;;3.47;;
4957;SDS011;2494;51.872;9.688;2024-02-04T07:10:42;3.10;;;2.80;;
4957;SDS011;2494;51.872;9.688;2024-02-04T07:13:27;2.93;;;2.70;;
4957;SDS011;2494;51.872;9.688;2024-02-04T07:16:12;3.07;;;2.77;;
4957;SDS011;2494;51.872;9.688;2024-02-04T07:18:57;6.87;;;3.60;;
4957;SDS011;2494;51.872;9.688;2024-02-04T07:21:42;3.17;;;2.97;;
4957;SDS011;2494;51.872;9.688;2024-02-04T07:24:29;3.40;;;3.10;;
4957;SDS011;2494;51.872;9.688;2024-02-04T07:27:14;5.10;;;3.03;;
4957;SDS011;2494;51.872;9.688;2024-02-04T07:29:59;3.20;;;2.70;;
4957;SDS011;2494;51.872;9.688;2024-02-04T07:32:44;6.13;;;3.40;;
4957;SDS011;2494;51.872;9.688;2024-02-04T07:35:29;6.50;;;3.50;;
4957;SDS011;2494;51.872;9.688;2024-02-04T07:38:14;5.40;;;3.70;;
4957;SDS011;2494;51.872;9.688;2024-02-04T07:41:00;3.73;;;3.03;;
4957;SDS011;2494;51.872;9.688;2024-02-04T07:43:45;4.93;;;4.57;;
4957;SDS011;2494;51.872;9.688;2024-02-04T07:46:32;4.80;;;3.57;;
4957;SDS011;2494;51.872;9.688;2024-02-04T07:49:17;4.83;;;3.60;;
4957;SDS011;2494;51.872;9.688;2024-02-04T07:52:02;4.10;;;3.40;;
4957;SDS011;2494;51.872;9.688;2024-02-04T07:54:47;4.60;;;3.60;;
4957;SDS011;2494;51.872;9.688;2024-02-04T07:57:33;4.70;;;3.37;;
4957;SDS011;2494;51.872;9.688;2024-02-04T08:00:18;5.17;;;4.37;;
4957;SDS011;2494;51.872;9.688;2024-02-04T08:03:04;5.10;;;3.90;;
4957;SDS011;2494;51.872;9.688;2024-02-04T08:05:49;8.20;;;3.80;;
4957;SDS011;2494;51.872;9.688;2024-02-04T08:08:34;5.90;;;4.10;;
4957;SDS011;2494;51.872;9.688;2024-02-04T08:11:19;3.83;;;3.53;;
4957;SDS011;2494;51.872;9.688;2024-02-04T08:14:06;4.90;;;4.33;;
4957;SDS011;2494;51.872;9.688;2024-02-04T08:16:51;7.93;;;5.40;;
4957;SDS011;2494;51.872;9.688;2024-02-04T08:19:36;7.70;;;4.77;;
4957;SDS011;2494;51.872;9.688;2024-02-04T08:22:21;9.40;;;4.10;;
4957;SDS011;2494;51.872;9.688;2024-02-04T08:25:06;8.10;;;5.40;;
4957;SDS011;2494;51.872;9.688;2024-02-04T08:27:53;6.73;;;6.13;;
4957;SDS011;2494;51.872;9.688;2024-02-04T08:30:40;6.80;;;5.53;;
4957;SDS011;2494;51.872;9.688;2024-02-04T08:33:25;4.73;;;4.27;;
4957;SDS011;2494;51.872;9.688;2024-02-04T08:36:10;6.57;;;5.27;;
4957;SDS011;2494;51.872;9.688;2024-02-04T08:38:55;7.40;;;6.17;;
4957;SDS011;2494;51.872;9.688;2024-02-04T08:41:40;6.20;;;5.47;;
4957;SDS011;2494;51.872;9.688;2024-02-04T08:44:25;10.97;;;7.07;;
4957;SDS011;2494;51.872;9.688;2024-02-04T08:47:11;7.43;;;5.47;;
4957;SDS011;2494;51.872;9.688;2024-02-04T08:49:58;7.03;;;5.43;;
4957;SDS011;2494;51.872;9.688;2024-02-04T08:52:43;4.70;;;4.30;;
4957;SDS011;2494;51.872;9.688;2024-02-04T08:55:28;8.67;;;5.23;;
4957;SDS011;2494;51.872;9.688;2024-02-04T08:58:13;6.50;;;3.63;;
4957;SDS011;2494;51.872;9.688;2024-02-04T09:00:57;4.20;;;3.10;;
4957;SDS011;2494;51.872;9.688;2024-02-04T09:03:44;6.77;;;4.00;;
4957;SDS011;2494;51.872;9.688;2024-02-04T09:06:29;3.47;;;3.17;;
4957;SDS011;2494;51.872;9.688;2024-02-04T09:09:14;3.50;;;3.20;;
4957;SDS011;2494;51.872;9.688;2024-02-04T09:11:59;5.30;;;4.67;;
4957;SDS011;2494;51.872;9.688;2024-02-04T09:14:44;5.47;;;3.90;;
4957;SDS011;2494;51.872;9.688;2024-02-04T09:17:29;5.67;;;4.00;;
4957;SDS011;2494;51.872;9.688;2024-02-04T09:20:15;7.63;;;4.47;;
4957;SDS011;2494;51.872;9.688;2024-02-04T09:23:00;7.73;;;4.77;;
4957;SDS011;2494;51.872;9.688;2024-02-04T09:25:46;5.13;;;4.63;;
4957;SDS011;2494;51.872;9.688;2024-02-04T09:28:31;5.60;;;3.90;;
4957;SDS011;2494;51.872;9.688;2024-02-04T09:31:16;6.03;;;4.00;;
4957;SDS011;2494;51.872;9.688;2024-02-04T09:34:01;5.07;;;3.40;;
4957;SDS011;2494;51.872;9.688;2024-02-04T09:36:47;4.53;;;4.10;;
4957;SDS011;2494;51.872;9.688;2024-02-04T09:39:32;8.30;;;4.63;;
4957;SDS011;2494;51.872;9.688;2024-02-04T09:42:18;6.80;;;3.37;;
4957;SDS011;2494;51.872;9.688;2024-02-04T09:45:04;6.23;;;3.73;;
4957;SDS011;2494;51.872;9.688;2024-02-04T09:47:49;13.80;;;3.50;;
4957;SDS011;2494;51.872;9.688;2024-02-04T09:50:34;5.27;;;2.50;;
4957;SDS011;2494;51.872;9.688;2024-02-04T09:53:21;5.17;;;2.93;;
4957;SDS011;2494;51.872;9.688;2024-02-04T09:56:07;9.93;;;3.40;;
4957;SDS011;2494;51.872;9.688;2024-02-04T09:58:54;3.67;;;3.33;;
4957;SDS011;2494;51.872;9.688;2024-02-04T10:01:40;4.70;;;2.40;;
4957;SDS011;2494;51.872;9.688;2024-02-04T10:04:25;5.43;;;3.30;;
4957;SDS011;2494;51.872;9.688;2024-02-04T10:07:10;10.53;;;4.47;;
4957;SDS011;2494;51.872;9.688;2024-02-04T10:09:59;7.13;;;4.53;;
4957;SDS011;2494;51.872;9.688;2024-02-04T10:12:44;3.90;;;2.90;;
4957;SDS011;2494;51.872;9.688;2024-02-04T10:15:30;4.03;;;2.40;;
4957;SDS011;2494;51.872;9.688;2024-02-04T10:18:16;2.70;;;2.00;;
4957;SDS011;2494;51.872;9.688;2024-02-04T10:21:02;1.90;;;1.50;;
4957;SDS011;2494;51.872;9.688;2024-02-04T10:23:47;3.30;;;2.00;;
4957;SDS011;2494;51.872;9.688;2024-02-04T10:26:34;1.60;;;1.50;;
4957;SDS011;2494;51.872;9.688;2024-02-04T10:29:21;7.20;;;2.10;;
4957;SDS011;2494;51.872;9.688;2024-02-04T10:32:06;8.90;;;2.73;;
4957;SDS011;2494;51.872;9.688;2024-02-04T10:34:52;5.07;;;2.70;;
4957;SDS011;2494;51.872;9.688;2024-02-04T10:37:37;4.80;;;2.30;;
4957;SDS011;2494;51.872;9.688;2024-02-04T10:40:22;8.37;;;2.20;;
4957;SDS011;2494;51.872;9.688;2024-02-04T10:43:10;1.97;;;1.77;;
4957;SDS011;2494;51.872;9.688;2024-02-04T10:45:55;3.97;;;2.30;;
4957;SDS011;2494;51.872;9.688;2024-02-04T10:48:41;3.80;;;1.60;;
4957;SDS011;2494;51.872;9.688;2024-02-04T10:51:27;5.47;;;1.83;;
4957;SDS011;2494;51.872;9.688;2024-02-04T10:54:15;2.57;;;1.43;;
4957;SDS011;2494;51.872;9.688;2024-02-04T10:57:03;3.73;;;1.77;;
4957;SDS011;2494;51.872;9.688;2024-02-04T10:59:51;5.17;;;4.07;;
4957;SDS011;2494;51.872;9.688;2024-02-04T11:02:36;3.20;;;1.90;;
4957;SDS011;2494;51.872;9.688;2024-02-04T11:05:22;2.30;;;2.03;;
4957;SDS011;2494;51.872;9.688;2024-02-04T11:08:08;1.97;;;1.60;;
4957;SDS011;2494;51.872;9.688;2024-02-04T11:10:55;2.20;;;1.40;;
4957;SDS011;2494;51.872;9.688;2024-02-04T11:13:41;7.70;;;1.87;;
4957;SDS011;2494;51.872;9.688;2024-02-04T11:16:30;4.60;;;1.87;;
4957;SDS011;2494;51.872;9.688;2024-02-04T11:19:20;3.90;;;1.53;;
4957;SDS011;2494;51.872;9.688;2024-02-04T11:22:19;4.30;;;1.73;;
4957;SDS011;2494;51.872;9.688;2024-02-04T11:25:12;2.47;;;1.60;;
4957;SDS011;2494;51.872;9.688;2024-02-04T11:28:00;4.30;;;2.47;;
4957;SDS011;2494;51.872;9.688;2024-02-04T11:30:45;3.20;;;1.53;;
4957;SDS011;2494;51.872;9.688;2024-02-04T11:33:32;2.93;;;1.57;;
4957;SDS011;2494;51.872;9.688;2024-02-04T11:36:18;2.43;;;2.17;;
4957;SDS011;2494;51.872;9.688;2024-02-04T11:39:10;1.77;;;1.67;;
4957;SDS011;2494;51.872;9.688;2024-02-04T11:41:58;2.10;;;1.90;;
4957;SDS011;2494;51.872;9.688;2024-02-04T11:44:44;2.27;;;2.00;;
4957;SDS011;2494;51.872;9.688;2024-02-04T11:47:29;3.07;;;1.70;;
4957;SDS011;2494;51.872;9.688;2024-02-04T11:50:25;2.50;;;2.10;;
4957;SDS011;2494;51.872;9.688;2024-02-04T11:53:12;4.67;;;2.53;;
4957;SDS011;2494;51.872;9.688;2024-02-04T11:55:58;3.30;;;1.90;;
4957;SDS011;2494;51.872;9.688;2024-02-04T11:58:44;5.03;;;2.17;;
4957;SDS011;2494;51.872;9.688;2024-02-04T12:01:30;3.00;;;1.93;;
4957;SDS011;2494;51.872;9.688;2024-02-04T12:04:18;7.60;;;2.53;;
4957;SDS011;2494;51.872;9.688;2024-02-04T12:07:05;2.80;;;2.03;;
4957;SDS011;2494;51.872;9.688;2024-02-04T12:09:50;4.57;;;2.93;;
4957;SDS011;2494;51.872;9.688;2024-02-04T12:12:36;3.50;;;2.80;;
4957;SDS011;2494;51.872;9.688;2024-02-04T12:15:21;5.10;;;2.20;;
4957;SDS011;2494;51.872;9.688;2024-02-04T12:18:06;3.50;;;2.37;;
4957;SDS011;2494;51.872;9.688;2024-02-04T12:20:52;2.43;;;1.97;;
4957;SDS011;2494;51.872;9.688;2024-02-04T12:23:39;3.23;;;1.90;;
4957;SDS011;2494;51.872;9.688;2024-02-04T12:26:24;2.43;;;1.97;;
4957;SDS011;2494;51.872;9.688;2024-02-04T12:29:09;2.80;;;2.60;;
4957;SDS011;2494;51.872;9.688;2024-02-04T12:31:57;2.67;;;2.10;;
4957;SDS011;2494;51.872;9.688;2024-02-04T12:34:46;2.30;;;2.10;;
4957;SDS011;2494;51.872;9.688;2024-02-04T12:37:31;4.40;;;2.87;;
4957;SDS011;2494;51.872;9.688;2024-02-04T12:40:22;2.50;;;1.67;;
4957;SDS011;2494;51.872;9.688;2024-02-04T12:43:10;4.73;;;2.27;;
4957;SDS011;2494;51.872;9.688;2024-02-04T12:45:55;4.43;;;2.60;;
4957;SDS011;2494;51.872;9.688;2024-02-04T12:48:41;3.47;;;3.17;;
4957;SDS011;2494;51.872;9.688;2024-02-04T12:51:25;3.23;;;2.90;;
4957;SDS011;2494;51.872;9.688;2024-02-04T12:54:11;3.87;;;2.47;;
4957;SDS011;2494;51.872;9.688;2024-02-04T12:56:58;3.10;;;2.10;;
4957;SDS011;2494;51.872;9.688;2024-02-04T12:59:43;2.80;;;2.17;;
4957;SDS011;2494;51.872;9.688;2024-02-04T13:02:28;3.07;;;2.43;;
4957;SDS011;2494;51.872;9.688;2024-02-04T13:05:21;2.17;;;1.97;;
4957;SDS011;2494;51.872;9.688;2024-02-04T13:08:06;2.77;;;2.57;;
4957;SDS011;2494;51.872;9.688;2024-02-04T13:10:53;5.83;;;2.73;;
4957;SDS011;2494;51.872;9.688;2024-02-04T13:13:40;3.10;;;2.83;;
4957;SDS011;2494;51.872;9.688;2024-02-04T13:16:25;3.40;;;3.07;;
4957;SDS011;2494;51.872;9.688;2024-02-04T13:19:10;5.40;;;2.87;;
4957;SDS011;2494;51.872;9.688;2024-02-04T13:21:55;3.37;;;3.07;;
4957;SDS011;2494;51.872;9.688;2024-02-04T13:24:40;2.43;;;2.23;;
4957;SDS011;2494;51.872;9.688;2024-02-04T13:27:25;2.63;;;2.20;;
4957;SDS011;2494;51.872;9.688;2024-02-04T13:30:11;3.30;;;2.43;;
4957;SDS011;2494;51.872;9.688;2024-02-04T13:32:57;5.00;;;2.80;;
4957;SDS011;2494;51.872;9.688;2024-02-04T13:35:42;3.30;;;2.63;;
4957;SDS011;2494;51.872;9.688;2024-02-04T13:38:27;3.40;;;3.13;;
4957;SDS011;2494;51.872;9.688;2024-02-04T13:41:12;4.00;;;2.77;;
4957;SDS011;2494;51.872;9.688;2024-02-04T13:43:57;5.60;;;3.43;;
4957;SDS011;2494;51.872;9.688;2024-02-04T13:46:43;3.83;;;3.13;;
4957;SDS011;2494;51.872;9.688;2024-02-04T13:49:28;3.53;;;3.20;;
4957;SDS011;2494;51.872;9.688;2024-02-04T13:52:12;4.83;;;3.97;;
4957;SDS011;2494;51.872;9.688;2024-02-04T13:54:57;5.53;;;3.10;;
4957;SDS011;2494;51.872;9.688;2024-02-04T13:57:42;3.10;;;2.80;;
4957;SDS011;2494;51.872;9.688;2024-02-04T14:00:27;3.20;;;2.23;;
4957;SDS011;2494;51.872;9.688;2024-02-04T14:03:13;2.83;;;2.47;;
4957;SDS011;2494;51.872;9.688;2024-02-04T14:05:58;5.70;;;3.70;;
4957;SDS011;2494;51.872;9.688;2024-02-04T14:08:47;3.43;;;3.13;;
4957;SDS011;2494;51.872;9.688;2024-02-04T14:11:32;2.63;;;2.43;;
4957;SDS011;2494;51.872;9.688;2024-02-04T14:14:17;4.30;;;3.03;;
4957;SDS011;2494;51.872;9.688;2024-02-04T14:17:02;5.03;;;3.80;;
4957;SDS011;2494;51.872;9.688;2024-02-04T14:19:49;3.40;;;3.10;;
4957;SDS011;2494;51.872;9.688;2024-02-04T14:22:35;5.10;;;3.87;;
4957;SDS011;2494;51.872;9.688;2024-02-04T14:25:20;4.30;;;3.33;;
4957;SDS011;2494;51.872;9.688;2024-02-04T14:28:07;5.37;;;3.70;;
4957;SDS011;2494;51.872;9.688;2024-02-04T14:30:52;4.37;;;3.60;;
4957;SDS011;2494;51.872;9.688;2024-02-04T14:33:37;5.10;;;3.03;;
4957;SDS011;2494;51.872;9.688;2024-02-04T14:36:24;4.30;;;3.70;;
4957;SDS011;2494;51.872;9.688;2024-02-04T14:39:09;3.40;;;3.00;;
4957;SDS011;2494;51.872;9.688;2024-02-04T14:41:54;4.07;;;2.90;;
4957;SDS011;2494;51.872;9.688;2024-02-04T14:44:40;6.60;;;4.17;;
4957;SDS011;2494;51.872;9.688;2024-02-04T14:47:25;4.47;;;4.07;;
4957;SDS011;2494;51.872;9.688;2024-02-04T14:50:11;4.07;;;3.70;;
4957;SDS011;2494;51.872;9.688;2024-02-04T14:52:58;4.10;;;3.30;;
4957;SDS011;2494;51.872;9.688;2024-02-04T14:55:43;4.63;;;4.03;;
4957;SDS011;2494;51.872;9.688;2024-02-04T14:58:28;5.23;;;4.60;;
4957;SDS011;2494;51.872;9.688;2024-02-04T15:01:13;2.83;;;2.63;;
4957;SDS011;2494;51.872;9.688;2024-02-04T15:03:57;3.23;;;3.03;;
4957;SDS011;2494;51.872;9.688;2024-02-04T15:06:42;7.43;;;4.90;;
4957;SDS011;2494;51.872;9.688;2024-02-04T15:09:30;4.20;;;3.67;;
4957;SDS011;2494;51.872;9.688;2024-02-04T15:12:15;3.40;;;3.00;;
4957;SDS011;2494;51.872;9.688;2024-02-04T15:15:02;2.80;;;2.60;;
4957;SDS011;2494;51.872;9.688;2024-02-04T15:17:48;3.90;;;3.37;;
4957;SDS011;2494;51.872;9.688;2024-02-04T15:20:33;3.33;;;2.83;;
4957;SDS011;2494;51.872;9.688;2024-02-04T15:23:20;4.67;;;3.73;;
4957;SDS011;2494;51.872;9.688;2024-02-04T15:26:07;3.43;;;3.10;;
4957;SDS011;2494;51.872;9.688;2024-02-04T15:28:54;5.80;;;3.10;;
4957;SDS011;2494;51.872;9.688;2024-02-04T15:31:42;2.57;;;2.40;;
4957;SDS011;2494;51.872;9.688;2024-02-04T15:34:27;4.50;;;2.37;;
4957;SDS011;2494;51.872;9.688;2024-02-04T15:37:15;2.50;;;2.30;;
4957;SDS011;2494;51.872;9.688;2024-02-04T15:40:02;2.93;;;2.23;;
4957;SDS011;2494;51.872;9.688;2024-02-04T15:42:48;3.13;;;2.37;;
4957;SDS011;2494;51.872;9.688;2024-02-04T15:45:33;2.07;;;1.93;;
4957;SDS011;2494;51.872;9.688;2024-02-04T15:48:18;2.30;;;2.10;;
4957;SDS011;2494;51.872;9.688;2024-02-04T15:51:05;5.73;;;2.63;;
4957;SDS011;2494;51.872;9.688;2024-02-04T15:53:50;3.40;;;2.50;;
4957;SDS011;2494;51.872;9.688;2024-02-04T15:56:37;3.50;;;2.70;;
4957;SDS011;2494;51.872;9.688;2024-02-04T15:59:27;3.47;;;2.10;;
4957;SDS011;2494;51.872;9.688;2024-02-04T16:02:12;2.73;;;2.53;;
4957;SDS011;2494;51.872;9.688;2024-02-04T16:04:58;11.63;;;2.77;;
4957;SDS011;2494;51.872;9.688;2024-02-04T16:07:43;3.70;;;2.60;;
4957;SDS011;2494;51.872;9.688;2024-02-04T16:10:29;3.43;;;3.13;;
4957;SDS011;2494;51.872;9.688;2024-02-04T16:13:14;3.27;;;2.90;;
4957;SDS011;2494;51.872;9.688;2024-02-04T16:16:02;3.27;;;2.97;;
4957;SDS011;2494;51.872;9.688;2024-02-04T16:18:48;3.03;;;2.80;;
4957;SDS011;2494;51.872;9.688;2024-02-04T16:21:33;6.27;;;3.07;;
4957;SDS011;2494;51.872;9.688;2024-02-04T16:24:18;3.37;;;3.07;;
4957;SDS011;2494;51.872;9.688;2024-02-04T16:27:03;4.00;;;2.77;;
4957;SDS011;2494;51.872;9.688;2024-02-04T16:29:48;3.60;;;3.30;;
4957;SDS011;2494;51.872;9.688;2024-02-04T16:32:34;2.90;;;2.70;;
4957;SDS011;2494;51.872;9.688;2024-02-04T16:35:19;2.97;;;2.73;;
4957;SDS011;2494;51.872;9.688;2024-02-04T16:38:05;3.70;;;3.40;;
4957;SDS011;2494;51.872;9.688;2024-02-04T16:40:50;4.70;;;3.40;;
4957;SDS011;2494;51.872;9.688;2024-02-04T16:43:35;4.63;;;4.10;;
4957;SDS011;2494;51.872;9.688;2024-02-04T16:46:19;4.77;;;3.67;;
4957;SDS011;2494;51.872;9.688;2024-02-04T16:49:06;4.47;;;3.73;;
4957;SDS011;2494;51.872;9.688;2024-02-04T16:51:51;5.30;;;4.90;;
4957;SDS011;2494;51.872;9.688;2024-02-04T16:54:36;5.67;;;4.13;;
4957;SDS011;2494;51.872;9.688;2024-02-04T16:57:21;2.80;;;2.60;;
4957;SDS011;2494;51.872;9.688;2024-02-04T17:00:06;5.10;;;4.60;;
4957;SDS011;2494;51.872;9.688;2024-02-04T17:02:52;6.70;;;5.17;;
4957;SDS011;2494;51.872;9.688;2024-02-04T17:05:39;4.90;;;4.40;;
4957;SDS011;2494;51.872;9.688;2024-02-04T17:08:25;4.00;;;3.57;;